sensor_id;sensor_type;location;lat;lon;timestamp;pressure;altitude;pressure_sealevel;temperature;humidity
73085;BME280;62974;49.460;10.892;2022-12-16T00:01:11;96623.66;;;-3.93;100.00
73085;BME280;62974;49.460;10.892;2022-12-16T00:03:39;96618.56;;;-4.04;100.00
73085;BME280;62974;49.460;10.892;2022-12-16T00:06:08;96628.59;;;-3.90;100.00
73085;BME280;62974;49.460;10.892;2022-12-16T00:08:38;96627.09;;;-3.83;100.00
73085;BME280;62974;49.460;10.892;2022-12-16T00:11:06;96622.28;;;-3.87;100.00
73085;BME280;62974;49.460;10.892;2022-12-16T00:13:34;96626.00;;;-3.99;100.00
73085;BME280;62974;49.460;10.892;2022-12-16T00:16:04;96626.69;;;-3.88;100.00
73085;BME280;62974;49.460;10.892;2022-12-16T00:18:32;96620.34;;;-3.95;100.00
73085;BME280;62974;49.460;10.892;2022-12-16T00:21:00;96616.91;;;-3.95;100.00
73085;BME280;62974;49.460;10.892;2022-12-16T00:23:29;96618.53;;;-3.85;100.00
73085;BME280;62974;49.460;10.892;2022-12-16T00:25:57;96621.28;;;-3.67;100.00
73085;BME280;62974;49.460;10.892;2022-12-16T00:28:25;96617.19;;;-4.08;100.00
73085;BME280;62974;49.460;10.892;2022-12-16T00:30:54;96617.19;;;-4.08;100.00
73085;BME280;62974;49.460;10.892;2022-12-16T00:33:24;96611.50;;;-3.94;100.00
73085;BME280;62974;49.460;10.892;2022-12-16T00:35:52;96610.13;;;-3.88;100.00
73085;BME280;62974;49.460;10.892;2022-12-16T00:38:21;96608.28;;;-3.59;100.00
73085;BME280;62974;49.460;10.892;2022-12-16T00:40:51;96608.97;;;-3.29;100.00
73085;BME280;62974;49.460;10.892;2022-12-16T00:43:19;96600.06;;;-3.83;100.00
73085;BME280;62974;49.460;10.892;2022-12-16T00:45:47;96601.06;;;-3.57;100.00
73085;BME280;62974;49.460;10.892;2022-12-16T00:48:18;96600.88;;;-3.83;100.00
73085;BME280;62974;49.460;10.892;2022-12-16T00:50:49;96594.66;;;-3.35;100.00
73085;BME280;62974;49.460;10.892;2022-12-16T00:53:17;96595.34;;;-3.80;100.00
73085;BME280;62974;49.460;10.892;2022-12-16T00:55:45;96602.19;;;-3.59;100.00
73085;BME280;62974;49.460;10.892;2022-12-16T00:58:14;96600.72;;;-3.81;100.00
73085;BME280;62974;49.460;10.892;2022-12-16T01:00:42;96605.38;;;-3.65;100.00
73085;BME280;62974;49.460;10.892;2022-12-16T01:03:09;96601.06;;;-3.47;100.00
73085;BME280;62974;49.460;10.892;2022-12-16T01:05:44;96605.16;;;-3.45;100.00
73085;BME280;62974;49.460;10.892;2022-12-16T01:08:12;96615.63;;;-3.82;100.00
73085;BME280;62974;49.460;10.892;2022-12-16T01:10:39;96616.13;;;-3.59;100.00
73085;BME280;62974;49.460;10.892;2022-12-16T01:13:07;96618.34;;;-3.64;100.00
73085;BME280;62974;49.460;10.892;2022-12-16T01:15:37;96618.06;;;-3.24;100.00
73085;BME280;62974;49.460;10.892;2022-12-16T01:18:04;96619.31;;;-3.55;100.00
73085;BME280;62974;49.460;10.892;2022-12-16T01:20:32;96615.00;;;-3.47;100.00
73085;BME280;62974;49.460;10.892;2022-12-16T01:23:00;96623.53;;;-3.91;100.00
73085;BME280;62974;49.460;10.892;2022-12-16T01:25:28;96626.66;;;-3.78;100.00
73085;BME280;62974;49.460;10.892;2022-12-16T01:27:55;96629.97;;;-3.76;100.00
73085;BME280;62974;49.460;10.892;2022-12-16T01:30:23;96618.81;;;-3.97;100.00
73085;BME280;62974;49.460;10.892;2022-12-16T01:32:52;96624.72;;;-3.29;100.00
73085;BME280;62974;49.460;10.892;2022-12-16T01:35:19;96630.69;;;-3.93;100.00
73085;BME280;62974;49.460;10.892;2022-12-16T01:38:07;96637.13;;;-3.78;100.00
73085;BME280;62974;49.460;10.892;2022-12-16T01:40:34;96637.00;;;-3.76;100.00
73085;BME280;62974;49.460;10.892;2022-12-16T01:43:07;96626.97;;;-4.00;100.00
73085;BME280;62974;49.460;10.892;2022-12-16T01:45:37;96633.63;;;-3.50;100.00
73085;BME280;62974;49.460;10.892;2022-12-16T01:48:14;96632.47;;;-3.94;100.00
73085;BME280;62974;49.460;10.892;2022-12-16T01:50:46;96641.53;;;-3.69;100.00
73085;BME280;62974;49.460;10.892;2022-12-16T01:53:15;96630.41;;;-3.81;100.00
73085;BME280;62974;49.460;10.892;2022-12-16T01:55:46;96633.97;;;-3.62;100.00
73085;BME280;62974;49.460;10.892;2022-12-16T01:58:19;96629.59;;;-3.91;100.00
73085;BME280;62974;49.460;10.892;2022-12-16T02:00:49;96641.44;;;-3.77;100.00
73085;BME280;62974;49.460;10.892;2022-12-16T02:03:18;96635.34;;;-3.68;100.00
73085;BME280;62974;49.460;10.892;2022-12-16T02:05:46;96634.84;;;-3.91;100.00
73085;BME280;62974;49.460;10.892;2022-12-16T02:08:16;96640.91;;;-4.00;100.00
73085;BME280;62974;49.460;10.892;2022-12-16T02:10:55;96645.00;;;-3.78;100.00
73085;BME280;62974;49.460;10.892;2022-12-16T02:13:34;96646.50;;;-3.66;100.00
73085;BME280;62974;49.460;10.892;2022-12-16T02:16:09;96636.13;;;-3.58;100.00
73085;BME280;62974;49.460;10.892;2022-12-16T02:18:49;96641.16;;;-3.93;100.00
73085;BME280;62974;49.460;10.892;2022-12-16T02:21:45;96638.72;;;-3.95;100.00
73085;BME280;62974;49.460;10.892;2022-12-16T02:24:50;96634.44;;;-3.96;100.00
73085;BME280;62974;49.460;10.892;2022-12-16T02:28:00;96650.69;;;-3.92;100.00
73085;BME280;62974;49.460;10.892;2022-12-16T02:30:47;96645.16;;;-3.80;100.00
73085;BME280;62974;49.460;10.892;2022-12-16T02:33:51;96647.09;;;-3.82;100.00
73085;BME280;62974;49.460;10.892;2022-12-16T02:36:31;96650.16;;;-4.05;100.00
73085;BME280;62974;49.460;10.892;2022-12-16T02:39:06;96654.41;;;-3.85;100.00
73085;BME280;62974;49.460;10.892;2022-12-16T02:41:42;96660.47;;;-3.85;100.00
73085;BME280;62974;49.460;10.892;2022-12-16T02:44:10;96659.81;;;-4.15;100.00
73085;BME280;62974;49.460;10.892;2022-12-16T02:46:42;96656.78;;;-4.01;100.00
73085;BME280;62974;49.460;10.892;2022-12-16T02:52:19;96668.78;;;-4.08;100.00
73085;BME280;62974;49.460;10.892;2022-12-16T02:54:49;96672.22;;;-4.17;100.00
73085;BME280;62974;49.460;10.892;2022-12-16T02:57:33;96660.94;;;-3.99;100.00
73085;BME280;62974;49.460;10.892;2022-12-16T03:00:06;96666.03;;;-4.07;100.00
73085;BME280;62974;49.460;10.892;2022-12-16T03:02:46;96663.25;;;-3.96;100.00
73085;BME280;62974;49.460;10.892;2022-12-16T03:05:20;96656.63;;;-4.09;100.00
73085;BME280;62974;49.460;10.892;2022-12-16T03:07:51;96656.38;;;-4.06;100.00
73085;BME280;62974;49.460;10.892;2022-12-16T03:10:24;96654.13;;;-3.82;100.00
73085;BME280;62974;49.460;10.892;2022-12-16T03:12:54;96659.13;;;-4.08;100.00
73085;BME280;62974;49.460;10.892;2022-12-16T03:15:25;96660.63;;;-3.96;100.00
73085;BME280;62974;49.460;10.892;2022-12-16T03:17:57;96668.31;;;-3.65;100.00
73085;BME280;62974;49.460;10.892;2022-12-16T03:20:28;96663.00;;;-4.02;100.00
73085;BME280;62974;49.460;10.892;2022-12-16T03:23:02;96670.84;;;-3.93;100.00
73085;BME280;62974;49.460;10.892;2022-12-16T03:25:33;96657.19;;;-3.96;100.00
73085;BME280;62974;49.460;10.892;2022-12-16T03:28:12;96672.34;;;-3.81;100.00
73085;BME280;62974;49.460;10.892;2022-12-16T03:30:46;96667.66;;;-3.67;100.00
73085;BME280;62974;49.460;10.892;2022-12-16T03:33:21;96667.66;;;-3.77;100.00
73085;BME280;62974;49.460;10.892;2022-12-16T03:35:52;96676.78;;;-3.91;100.00
73085;BME280;62974;49.460;10.892;2022-12-16T03:38:24;96687.81;;;-3.21;100.00
73085;BME280;62974;49.460;10.892;2022-12-16T03:40:55;96685.94;;;-3.02;100.00
73085;BME280;62974;49.460;10.892;2022-12-16T03:43:23;96693.22;;;-3.23;100.00
73085;BME280;62974;49.460;10.892;2022-12-16T03:45:53;96700.09;;;-3.22;100.00
73085;BME280;62974;49.460;10.892;2022-12-16T03:48:25;96700.78;;;-3.76;100.00
73085;BME280;62974;49.460;10.892;2022-12-16T03:50:53;96701.88;;;-3.69;100.00
73085;BME280;62974;49.460;10.892;2022-12-16T03:53:20;96696.66;;;-3.88;100.00
73085;BME280;62974;49.460;10.892;2022-12-16T03:55:51;96689.16;;;-3.73;100.00
73085;BME280;62974;49.460;10.892;2022-12-16T03:58:19;96678.16;;;-3.87;100.00
73085;BME280;62974;49.460;10.892;2022-12-16T04:00:47;96678.41;;;-3.90;100.00
73085;BME280;62974;49.460;10.892;2022-12-16T04:03:15;96681.34;;;-4.02;100.00
73085;BME280;62974;49.460;10.892;2022-12-16T04:05:45;96672.91;;;-3.87;100.00
73085;BME280;62974;49.460;10.892;2022-12-16T04:08:12;96679.81;;;-3.95;100.00
73085;BME280;62974;49.460;10.892;2022-12-16T04:10:40;96672.34;;;-4.09;100.00
73085;BME280;62974;49.460;10.892;2022-12-16T04:13:25;96675.66;;;-3.98;100.00
73085;BME280;62974;49.460;10.892;2022-12-16T04:16:13;96684.47;;;-3.70;100.00
73085;BME280;62974;49.460;10.892;2022-12-16T04:19:00;96690.00;;;-4.02;100.00
73085;BME280;62974;49.460;10.892;2022-12-16T04:21:47;96701.13;;;-3.42;100.00
73085;BME280;62974;49.460;10.892;2022-12-16T04:24:33;96700.97;;;-3.31;100.00
73085;BME280;62974;49.460;10.892;2022-12-16T04:27:01;96704.97;;;-3.27;100.00
73085;BME280;62974;49.460;10.892;2022-12-16T04:29:46;96703.38;;;-3.57;100.00
73085;BME280;62974;49.460;10.892;2022-12-16T04:32:31;96719.13;;;-3.76;100.00
73085;BME280;62974;49.460;10.892;2022-12-16T04:35:19;96725.56;;;-3.42;100.00
73085;BME280;62974;49.460;10.892;2022-12-16T04:38:05;96731.28;;;-3.75;100.00
73085;BME280;62974;49.460;10.892;2022-12-16T04:40:51;96734.59;;;-3.73;100.00
73085;BME280;62974;49.460;10.892;2022-12-16T04:43:36;96725.22;;;-3.75;100.00
73085;BME280;62974;49.460;10.892;2022-12-16T04:46:21;96734.84;;;-3.47;100.00
73085;BME280;62974;49.460;10.892;2022-12-16T04:49:07;96733.63;;;-3.62;100.00
73085;BME280;62974;49.460;10.892;2022-12-16T04:51:52;96744.66;;;-3.97;100.00
73085;BME280;62974;49.460;10.892;2022-12-16T04:54:38;96738.84;;;-3.53;100.00
73085;BME280;62974;49.460;10.892;2022-12-16T04:57:24;96745.63;;;-3.69;100.00
73085;BME280;62974;49.460;10.892;2022-12-16T05:00:10;96748.78;;;-3.47;100.00
73085;BME280;62974;49.460;10.892;2022-12-16T05:02:55;96742.44;;;-3.73;100.00
73085;BME280;62974;49.460;10.892;2022-12-16T05:05:41;96746.88;;;-3.64;100.00
73085;BME280;62974;49.460;10.892;2022-12-16T05:08:26;96752.38;;;-3.96;100.00
73085;BME280;62974;49.460;10.892;2022-12-16T05:11:12;96758.72;;;-3.50;100.00
73085;BME280;62974;49.460;10.892;2022-12-16T05:13:57;96759.13;;;-3.74;100.00
73085;BME280;62974;49.460;10.892;2022-12-16T05:16:43;96753.38;;;-3.58;100.00
73085;BME280;62974;49.460;10.892;2022-12-16T05:19:28;96760.53;;;-3.89;100.00
73085;BME280;62974;49.460;10.892;2022-12-16T05:22:13;96763.44;;;-3.92;100.00
73085;BME280;62974;49.460;10.892;2022-12-16T05:24:58;96755.44;;;-3.91;100.00
73085;BME280;62974;49.460;10.892;2022-12-16T05:27:49;96762.03;;;-3.77;100.00
73085;BME280;62974;49.460;10.892;2022-12-16T05:30:34;96759.72;;;-3.80;100.00
73085;BME280;62974;49.460;10.892;2022-12-16T05:33:21;96761.63;;;-3.92;100.00
73085;BME280;62974;49.460;10.892;2022-12-16T05:36:06;96762.59;;;-3.54;100.00
73085;BME280;62974;49.460;10.892;2022-12-16T05:38:51;96769.22;;;-3.41;100.00
73085;BME280;62974;49.460;10.892;2022-12-16T05:41:37;96779.84;;;-3.61;100.00
73085;BME280;62974;49.460;10.892;2022-12-16T05:44:23;96782.91;;;-3.56;100.00
73085;BME280;62974;49.460;10.892;2022-12-16T05:47:09;96790.34;;;-3.81;100.00
73085;BME280;62974;49.460;10.892;2022-12-16T05:49:54;96792.00;;;-3.70;100.00
73085;BME280;62974;49.460;10.892;2022-12-16T05:52:40;96783.56;;;-3.73;100.00
73085;BME280;62974;49.460;10.892;2022-12-16T05:55:25;96790.22;;;-3.79;100.00
73085;BME280;62974;49.460;10.892;2022-12-16T05:58:10;96795.03;;;-3.65;100.00
73085;BME280;62974;49.460;10.892;2022-12-16T06:00:57;96792.84;;;-3.79;100.00
73085;BME280;62974;49.460;10.892;2022-12-16T06:03:42;96801.38;;;-3.77;100.00
73085;BME280;62974;49.460;10.892;2022-12-16T06:06:27;96808.25;;;-3.86;100.00
73085;BME280;62974;49.460;10.892;2022-12-16T06:09:12;96801.78;;;-3.82;100.00
73085;BME280;62974;49.460;10.892;2022-12-16T06:11:58;96813.28;;;-3.63;100.00
73085;BME280;62974;49.460;10.892;2022-12-16T06:14:49;96815.03;;;-3.73;100.00
73085;BME280;62974;49.460;10.892;2022-12-16T06:17:42;96820.75;;;-3.59;100.00
73085;BME280;62974;49.460;10.892;2022-12-16T06:20:30;96831.22;;;-3.59;100.00
73085;BME280;62974;49.460;10.892;2022-12-16T06:23:16;96827.66;;;-3.39;100.00
73085;BME280;62974;49.460;10.892;2022-12-16T06:26:06;96838.50;;;-3.82;100.00
73085;BME280;62974;49.460;10.892;2022-12-16T06:28:51;96842.69;;;-3.60;100.00
73085;BME280;62974;49.460;10.892;2022-12-16T06:31:37;96846.66;;;-3.65;100.00
73085;BME280;62974;49.460;10.892;2022-12-16T06:34:23;96855.22;;;-3.54;100.00
73085;BME280;62974;49.460;10.892;2022-12-16T06:37:08;96852.19;;;-3.68;100.00
73085;BME280;62974;49.460;10.892;2022-12-16T06:39:53;96854.09;;;-3.80;100.00
73085;BME280;62974;49.460;10.892;2022-12-16T06:42:39;96855.53;;;-3.28;100.00
73085;BME280;62974;49.460;10.892;2022-12-16T06:45:25;96855.94;;;-3.33;100.00
73085;BME280;62974;49.460;10.892;2022-12-16T06:48:10;96863.78;;;-3.61;100.00
73085;BME280;62974;49.460;10.892;2022-12-16T06:50:57;96864.78;;;-3.43;100.00
73085;BME280;62974;49.460;10.892;2022-12-16T06:53:42;96876.50;;;-3.66;100.00
73085;BME280;62974;49.460;10.892;2022-12-16T06:56:27;96866.97;;;-3.48;100.00
73085;BME280;62974;49.460;10.892;2022-12-16T06:59:12;96871.53;;;-3.50;100.00
73085;BME280;62974;49.460;10.892;2022-12-16T07:01:58;96876.13;;;-3.43;100.00
73085;BME280;62974;49.460;10.892;2022-12-16T07:04:44;96892.91;;;-3.64;100.00
73085;BME280;62974;49.460;10.892;2022-12-16T07:07:30;96888.78;;;-3.57;100.00
73085;BME280;62974;49.460;10.892;2022-12-16T07:10:15;96894.31;;;-3.41;100.00
73085;BME280;62974;49.460;10.892;2022-12-16T07:13:01;96904.53;;;-3.67;100.00
73085;BME280;62974;49.460;10.892;2022-12-16T07:15:46;96906.31;;;-3.58;100.00
73085;BME280;62974;49.460;10.892;2022-12-16T07:18:31;96907.25;;;-3.68;100.00
73085;BME280;62974;49.460;10.892;2022-12-16T07:21:16;96914.03;;;-3.66;100.00
73085;BME280;62974;49.460;10.892;2022-12-16T07:24:04;96914.72;;;-3.64;100.00
73085;BME280;62974;49.460;10.892;2022-12-16T07:26:49;96909.78;;;-3.57;100.00
73085;BME280;62974;49.460;10.892;2022-12-16T07:29:34;96916.81;;;-3.67;100.00
73085;BME280;62974;49.460;10.892;2022-12-16T07:32:19;96919.19;;;-3.36;100.00
73085;BME280;62974;49.460;10.892;2022-12-16T07:35:05;96926.78;;;-3.42;100.00
73085;BME280;62974;49.460;10.892;2022-12-16T07:37:50;96934.53;;;-3.41;100.00
73085;BME280;62974;49.460;10.892;2022-12-16T07:40:37;96938.38;;;-3.45;100.00
73085;BME280;62974;49.460;10.892;2022-12-16T07:43:22;96941.16;;;-3.37;100.00
73085;BME280;62974;49.460;10.892;2022-12-16T07:46:07;96948.91;;;-3.35;100.00
73085;BME280;62974;49.460;10.892;2022-12-16T07:48:52;96957.69;;;-3.46;100.00
73085;BME280;62974;49.460;10.892;2022-12-16T07:51:37;96958.81;;;-3.48;100.00
73085;BME280;62974;49.460;10.892;2022-12-16T07:54:23;96971.41;;;-3.33;100.00
73085;BME280;62974;49.460;10.892;2022-12-16T07:57:09;96973.19;;;-3.43;100.00
73085;BME280;62974;49.460;10.892;2022-12-16T07:59:55;96977.47;;;-3.42;100.00
73085;BME280;62974;49.460;10.892;2022-12-16T08:02:40;96978.69;;;-3.46;100.00
73085;BME280;62974;49.460;10.892;2022-12-16T08:05:26;96987.72;;;-3.29;100.00
73085;BME280;62974;49.460;10.892;2022-12-16T08:08:11;96988.28;;;-3.35;100.00
73085;BME280;62974;49.460;10.892;2022-12-16T08:10:56;96998.63;;;-3.24;100.00
73085;BME280;62974;49.460;10.892;2022-12-16T08:13:43;96997.94;;;-3.26;100.00
73085;BME280;62974;49.460;10.892;2022-12-16T08:16:28;97000.47;;;-3.15;100.00
73085;BME280;62974;49.460;10.892;2022-12-16T08:19:13;97008.16;;;-3.33;100.00
73085;BME280;62974;49.460;10.892;2022-12-16T08:21:58;97014.94;;;-3.20;100.00
73085;BME280;62974;49.460;10.892;2022-12-16T08:24:44;97015.91;;;-3.21;100.00
73085;BME280;62974;49.460;10.892;2022-12-16T08:27:29;97012.91;;;-2.98;100.00
73085;BME280;62974;49.460;10.892;2022-12-16T08:30:12;97016.16;;;-3.34;100.00
73085;BME280;62974;49.460;10.892;2022-12-16T08:33:01;97022.56;;;-3.08;100.00
73085;BME280;62974;49.460;10.892;2022-12-16T08:35:46;97027.66;;;-3.16;100.00
73085;BME280;62974;49.460;10.892;2022-12-16T08:38:32;97025.91;;;-2.96;100.00
73085;BME280;62974;49.460;10.892;2022-12-16T08:41:18;97028.09;;;-3.11;100.00
73085;BME280;62974;49.460;10.892;2022-12-16T08:44:03;97030.69;;;-3.20;100.00
73085;BME280;62974;49.460;10.892;2022-12-16T08:46:50;97044.09;;;-3.23;100.00
73085;BME280;62974;49.460;10.892;2022-12-16T08:49:35;97038.13;;;-3.25;100.00
73085;BME280;62974;49.460;10.892;2022-12-16T08:52:26;97045.50;;;-3.19;100.00
73085;BME280;62974;49.460;10.892;2022-12-16T08:55:11;97047.56;;;-3.13;100.00
73085;BME280;62974;49.460;10.892;2022-12-16T08:57:57;97052.31;;;-2.78;100.00
73085;BME280;62974;49.460;10.892;2022-12-16T09:00:42;97050.50;;;-3.07;100.00
73085;BME280;62974;49.460;10.892;2022-12-16T09:03:36;97046.72;;;-3.14;100.00
73085;BME280;62974;49.460;10.892;2022-12-16T09:06:17;97052.69;;;-3.12;100.00
73085;BME280;62974;49.460;10.892;2022-12-16T09:09:06;97060.81;;;-3.24;100.00
73085;BME280;62974;49.460;10.892;2022-12-16T09:11:51;97059.06;;;-3.05;100.00
73085;BME280;62974;49.460;10.892;2022-12-16T09:14:36;97071.59;;;-3.18;100.00
73085;BME280;62974;49.460;10.892;2022-12-16T09:17:21;97070.28;;;-2.93;100.00
73085;BME280;62974;49.460;10.892;2022-12-16T09:20:09;97078.66;;;-3.09;100.00
73085;BME280;62974;49.460;10.892;2022-12-16T09:22:54;97075.72;;;-2.75;100.00
73085;BME280;62974;49.460;10.892;2022-12-16T09:25:39;97080.03;;;-3.14;100.00
73085;BME280;62974;49.460;10.892;2022-12-16T09:28:25;97079.94;;;-3.03;100.00
73085;BME280;62974;49.460;10.892;2022-12-16T09:31:10;97080.25;;;-2.87;100.00
73085;BME280;62974;49.460;10.892;2022-12-16T09:33:55;97083.44;;;-2.83;100.00
73085;BME280;62974;49.460;10.892;2022-12-16T09:36:40;97088.38;;;-2.90;100.00
73085;BME280;62974;49.460;10.892;2022-12-16T09:39:26;97088.03;;;-2.57;100.00
73085;BME280;62974;49.460;10.892;2022-12-16T09:42:19;97094.66;;;-2.72;100.00
73085;BME280;62974;49.460;10.892;2022-12-16T09:45:14;97099.16;;;-3.03;100.00
73085;BME280;62974;49.460;10.892;2022-12-16T09:48:05;97097.66;;;-2.86;100.00
73085;BME280;62974;49.460;10.892;2022-12-16T09:50:56;97098.72;;;-2.39;99.44
73085;BME280;62974;49.460;10.892;2022-12-16T09:53:50;97104.63;;;-2.56;98.41
73085;BME280;62974;49.460;10.892;2022-12-16T09:56:36;97106.00;;;-2.62;98.92
73085;BME280;62974;49.460;10.892;2022-12-16T09:59:24;97110.00;;;-2.67;98.65
73085;BME280;62974;49.460;10.892;2022-12-16T10:02:11;97111.84;;;-2.39;98.16
73085;BME280;62974;49.460;10.892;2022-12-16T10:04:57;97114.44;;;-2.68;96.30
73085;BME280;62974;49.460;10.892;2022-12-16T10:07:47;97114.16;;;-2.65;97.08
73085;BME280;62974;49.460;10.892;2022-12-16T10:10:48;97119.28;;;-2.63;96.97
73085;BME280;62974;49.460;10.892;2022-12-16T10:13:41;97119.13;;;-2.62;97.06
73085;BME280;62974;49.460;10.892;2022-12-16T10:16:39;97117.38;;;-2.52;96.91
73085;BME280;62974;49.460;10.892;2022-12-16T10:19:34;97123.97;;;-2.67;97.21
73085;BME280;62974;49.460;10.892;2022-12-16T10:22:26;97125.50;;;-2.64;97.40
73085;BME280;62974;49.460;10.892;2022-12-16T10:25:16;97125.53;;;-2.35;97.03
73085;BME280;62974;49.460;10.892;2022-12-16T10:28:14;97131.31;;;-2.61;96.85
73085;BME280;62974;49.460;10.892;2022-12-16T10:31:01;97125.50;;;-2.55;96.94
73085;BME280;62974;49.460;10.892;2022-12-16T10:33:53;97129.47;;;-2.70;96.00
73085;BME280;62974;49.460;10.892;2022-12-16T10:36:39;97125.38;;;-2.63;96.01
73085;BME280;62974;49.460;10.892;2022-12-16T10:39:28;97125.09;;;-2.60;96.34
73085;BME280;62974;49.460;10.892;2022-12-16T10:42:20;97131.34;;;-2.51;96.12
73085;BME280;62974;49.460;10.892;2022-12-16T10:45:17;97129.28;;;-2.28;96.24
73085;BME280;62974;49.460;10.892;2022-12-16T10:48:07;97127.31;;;-2.55;95.00
73085;BME280;62974;49.460;10.892;2022-12-16T10:50:54;97130.78;;;-2.45;94.98
73085;BME280;62974;49.460;10.892;2022-12-16T10:53:39;97143.19;;;-2.66;95.77
73085;BME280;62974;49.460;10.892;2022-12-16T10:56:38;97144.44;;;-2.61;95.22
73085;BME280;62974;49.460;10.892;2022-12-16T10:59:35;97143.41;;;-2.89;94.33
73085;BME280;62974;49.460;10.892;2022-12-16T11:02:23;97144.69;;;-2.83;95.44
73085;BME280;62974;49.460;10.892;2022-12-16T11:05:30;97146.34;;;-2.72;95.26
73085;BME280;62974;49.460;10.892;2022-12-16T11:08:25;97147.44;;;-2.85;95.08
73085;BME280;62974;49.460;10.892;2022-12-16T11:11:20;97141.13;;;-2.63;95.42
73085;BME280;62974;49.460;10.892;2022-12-16T11:14:17;97148.09;;;-2.83;94.94
73085;BME280;62974;49.460;10.892;2022-12-16T11:17:14;97144.56;;;-2.62;94.52
73085;BME280;62974;49.460;10.892;2022-12-16T11:20:16;97147.50;;;-2.56;95.13
73085;BME280;62974;49.460;10.892;2022-12-16T11:23:12;97150.56;;;-2.91;95.27
73085;BME280;62974;49.460;10.892;2022-12-16T11:26:04;97155.97;;;-2.92;95.71
73085;BME280;62974;49.460;10.892;2022-12-16T11:29:04;97158.94;;;-2.66;95.20
73085;BME280;62974;49.460;10.892;2022-12-16T11:31:55;97161.34;;;-3.03;95.13
73085;BME280;62974;49.460;10.892;2022-12-16T11:34:42;97158.63;;;-2.83;95.43
73085;BME280;62974;49.460;10.892;2022-12-16T11:37:31;97156.16;;;-2.84;95.59
73085;BME280;62974;49.460;10.892;2022-12-16T11:40:18;97146.16;;;-3.00;94.75
73085;BME280;62974;49.460;10.892;2022-12-16T11:43:04;97153.31;;;-3.02;95.35
73085;BME280;62974;49.460;10.892;2022-12-16T11:45:50;97159.59;;;-2.83;96.72
73085;BME280;62974;49.460;10.892;2022-12-16T11:48:39;97163.06;;;-2.83;95.66
73085;BME280;62974;49.460;10.892;2022-12-16T11:51:29;97171.75;;;-2.92;95.27
73085;BME280;62974;49.460;10.892;2022-12-16T11:55:02;97177.31;;;-2.76;95.74
73085;BME280;62974;49.460;10.892;2022-12-16T11:58:15;97176.66;;;-2.68;96.00
73085;BME280;62974;49.460;10.892;2022-12-16T12:01:07;97174.88;;;-2.58;95.50
73085;BME280;62974;49.460;10.892;2022-12-16T12:03:55;97182.88;;;-2.69;95.60
73085;BME280;62974;49.460;10.892;2022-12-16T12:06:55;97184.13;;;-2.64;95.52
73085;BME280;62974;49.460;10.892;2022-12-16T12:09:48;97185.38;;;-2.58;95.10
73085;BME280;62974;49.460;10.892;2022-12-16T12:12:39;97187.84;;;-2.66;94.43
73085;BME280;62974;49.460;10.892;2022-12-16T12:15:42;97200.97;;;-2.66;94.55
73085;BME280;62974;49.460;10.892;2022-12-16T12:18:38;97209.06;;;-2.49;95.03
73085;BME280;62974;49.460;10.892;2022-12-16T12:21:33;97210.13;;;-2.61;95.02
73085;BME280;62974;49.460;10.892;2022-12-16T12:24:27;97206.63;;;-2.80;94.94
73085;BME280;62974;49.460;10.892;2022-12-16T12:27:28;97211.50;;;-2.66;95.44
73085;BME280;62974;49.460;10.892;2022-12-16T12:30:18;97207.44;;;-2.80;94.62
73085;BME280;62974;49.460;10.892;2022-12-16T12:33:19;97213.78;;;-2.83;95.05
73085;BME280;62974;49.460;10.892;2022-12-16T12:36:13;97221.97;;;-3.06;93.77
73085;BME280;62974;49.460;10.892;2022-12-16T12:39:10;97220.44;;;-2.78;94.69
73085;BME280;62974;49.460;10.892;2022-12-16T12:42:09;97222.66;;;-2.74;93.88
73085;BME280;62974;49.460;10.892;2022-12-16T12:45:10;97232.81;;;-2.90;94.59
73085;BME280;62974;49.460;10.892;2022-12-16T12:48:09;97227.22;;;-2.76;95.01
73085;BME280;62974;49.460;10.892;2022-12-16T12:51:04;97242.19;;;-2.97;93.87
73085;BME280;62974;49.460;10.892;2022-12-16T12:53:55;97235.41;;;-2.69;95.43
73085;BME280;62974;49.460;10.892;2022-12-16T12:56:48;97230.69;;;-2.75;94.49
73085;BME280;62974;49.460;10.892;2022-12-16T12:59:43;97235.44;;;-2.90;93.87
73085;BME280;62974;49.460;10.892;2022-12-16T13:02:42;97237.81;;;-2.57;93.61
73085;BME280;62974;49.460;10.892;2022-12-16T13:05:33;97242.59;;;-2.71;93.21
73085;BME280;62974;49.460;10.892;2022-12-16T13:11:35;97257.75;;;-2.85;93.68
73085;BME280;62974;49.460;10.892;2022-12-16T13:14:51;97259.72;;;-2.77;93.56
73085;BME280;62974;49.460;10.892;2022-12-16T13:21:43;97265.50;;;-2.83;92.75
73085;BME280;62974;49.460;10.892;2022-12-16T13:24:47;97281.47;;;-3.16;92.49
73085;BME280;62974;49.460;10.892;2022-12-16T13:27:53;97276.91;;;-2.94;93.24
73085;BME280;62974;49.460;10.892;2022-12-16T13:30:39;97274.38;;;-3.05;92.42
73085;BME280;62974;49.460;10.892;2022-12-16T13:33:50;97279.81;;;-2.66;93.41
73085;BME280;62974;49.460;10.892;2022-12-16T13:36:53;97290.75;;;-2.92;91.87
73085;BME280;62974;49.460;10.892;2022-12-16T13:39:59;97293.75;;;-3.17;91.64
73085;BME280;62974;49.460;10.892;2022-12-16T13:42:53;97291.44;;;-2.90;91.65
73085;BME280;62974;49.460;10.892;2022-12-16T13:45:41;97293.47;;;-2.72;91.35
73085;BME280;62974;49.460;10.892;2022-12-16T13:48:31;97295.44;;;-2.65;92.63
73085;BME280;62974;49.460;10.892;2022-12-16T13:55:10;97311.69;;;-2.80;92.28
73085;BME280;62974;49.460;10.892;2022-12-16T13:58:02;97312.63;;;-2.61;91.75
73085;BME280;62974;49.460;10.892;2022-12-16T14:00:55;97317.59;;;-2.88;92.20
73085;BME280;62974;49.460;10.892;2022-12-16T14:03:43;97318.13;;;-2.64;92.07
73085;BME280;62974;49.460;10.892;2022-12-16T14:06:30;97332.50;;;-3.09;91.71
73085;BME280;62974;49.460;10.892;2022-12-16T14:09:23;97336.53;;;-3.05;92.46
73085;BME280;62974;49.460;10.892;2022-12-16T14:12:19;97339.28;;;-2.86;91.68
73085;BME280;62974;49.460;10.892;2022-12-16T14:15:21;97349.72;;;-3.16;92.55
73085;BME280;62974;49.460;10.892;2022-12-16T14:18:19;97348.78;;;-2.95;91.94
73085;BME280;62974;49.460;10.892;2022-12-16T14:21:19;97360.94;;;-3.14;92.12
73085;BME280;62974;49.460;10.892;2022-12-16T14:24:12;97361.53;;;-3.11;92.96